Aeroporto :
LOGIN :

Iscrizione | Disclaimer

   EN    FR    IT 

 










Sommario :    VFR   VFR Marginale   IFR   IFR Intensivo   IFR Molto Intensivo
Visibilità : 
Base nubi : 
>= 8 km
>= 3000ft
5 / 8 km
1000 / 3000 ft
1500m / 5 km
500 / 1000 ft
800 / 1500m
200 / 500 ft
< 800m
< 200 ft
Simboli :   Temporali  Nebbia  Neve Forte  Precipitazioni Forti  Vento > 20 kt
SIGMETs :   Varie  Temporali  Ghiacco  Turbolenza  Onda orograficha  Ceneri Vulcaniche






- Altitudine del aeroporto : 659 ft
- Codice IATA : LYN


LFLY - Lyon Bron

ULTIMO METAR :
  • 191700Z AUTO 33011KT 9999 FEW048/// ///CB 25/15 Q1018 TEMPO 33015G25KT 4000 SHRA BECMG SCT035

METARs OBSOLETI :
  • 191630Z AUTO 01005KT 320V030 9999 FEW041/// BKN050/// ///CB 25/16 Q1018 TEMPO 33015G25KT 4000 SHRA BECMG SCT035
  • 191600Z AUTO 01004KT 320V080 CAVOK 26/16 Q1018 TEMPO 33015G25KT 4000 SHRA SCT025TCU BKN040
  • 191530Z AUTO 02005KT 350V060 CAVOK 25/16 Q1018 TEMPO 33015G25KT 4000 SHRA SCT025TCU BKN040
  • 191500Z AUTO 04005KT 010V070 9999 FEW034 25/17 Q1018 TEMPO 33015G25KT 4000 SHRA SCT025TCU BKN040
  • 191430Z AUTO 36005KT 310V080 CAVOK 25/17 Q1018 TEMPO 33015G25KT 4000 SHRA SCT025TCU BKN040

TAF TAF LFLY
Valido dal 19 a 12 ore il 20 a 12 ore UTC


191100Z 1912/2012 35010KT 9999 SCT035
PROB40
TEMPO 1912/1918 33015G25KT 4000 SHRA SCT025TCU BKN040
BECMG 1919/1921 VRB03KT
PROB30 2003/2008 4000 BR BKN014
FM200800 35007KT 9999 BKN025
BECMG 2010/2012 SCT045
ATIS : +33 4 72 15 87 96



MetMap, La meteo Aeronautica in un colpo d'occhio ! - Copyright ORBIFLY Dicembre 2007 - Disclaimer

ORBIFLY MET'MAP TEAM :

Programmazione e sviluppo : Alexandra Zaïnal
Concezione : Baudouin d'Aumeries
Supporto tecnico e logistico : Manuel Goepfert
Aiuto : Marc-Olivier Méhu
Aiuto per la traduzione : Arnaldo La Scala




FONTI E CREDITI :

   NOAA